sensor_id;sensor_type;location;lat;lon;timestamp;temperature;humidity
37285;DHT22;23172;53.550;9.964;2022-12-20T00:01:25;8.50;99.90
37285;DHT22;23172;53.550;9.964;2022-12-20T00:06:27;8.50;99.90
37285;DHT22;23172;53.550;9.964;2022-12-20T00:11:29;8.50;99.90
37285;DHT22;23172;53.550;9.964;2022-12-20T00:16:32;8.60;99.90
37285;DHT22;23172;53.550;9.964;2022-12-20T00:21:34;8.60;99.90
37285;DHT22;23172;53.550;9.964;2022-12-20T00:26:36;8.60;99.90
37285;DHT22;23172;53.550;9.964;2022-12-20T00:31:39;8.60;99.90
37285;DHT22;23172;53.550;9.964;2022-12-20T00:36:41;8.70;99.90
37285;DHT22;23172;53.550;9.964;2022-12-20T00:41:42;8.70;99.90
37285;DHT22;23172;53.550;9.964;2022-12-20T00:46:45;8.70;99.90
37285;DHT22;23172;53.550;9.964;2022-12-20T00:51:47;8.70;99.90
37285;DHT22;23172;53.550;9.964;2022-12-20T00:56:49;8.70;99.90
37285;DHT22;23172;53.550;9.964;2022-12-20T01:01:52;8.60;99.90
37285;DHT22;23172;53.550;9.964;2022-12-20T01:06:54;8.60;99.90
37285;DHT22;23172;53.550;9.964;2022-12-20T01:11:56;8.60;99.90
37285;DHT22;23172;53.550;9.964;2022-12-20T01:16:59;8.60;99.90
37285;DHT22;23172;53.550;9.964;2022-12-20T01:22:00;8.70;99.90
37285;DHT22;23172;53.550;9.964;2022-12-20T01:27:02;8.70;99.90
37285;DHT22;23172;53.550;9.964;2022-12-20T01:32:05;8.70;99.90
37285;DHT22;23172;53.550;9.964;2022-12-20T01:37:07;8.70;99.90
37285;DHT22;23172;53.550;9.964;2022-12-20T01:42:10;8.70;99.90
37285;DHT22;23172;53.550;9.964;2022-12-20T01:47:15;8.80;99.90
37285;DHT22;23172;53.550;9.964;2022-12-20T01:52:17;8.90;99.90
37285;DHT22;23172;53.550;9.964;2022-12-20T01:57:21;8.90;99.90
37285;DHT22;23172;53.550;9.964;2022-12-20T02:02:26;9.00;99.90
37285;DHT22;23172;53.550;9.964;2022-12-20T02:07:28;9.00;99.90
37285;DHT22;23172;53.550;9.964;2022-12-20T02:12:32;9.10;99.90
37285;DHT22;23172;53.550;9.964;2022-12-20T02:17:41;9.10;99.90
37285;DHT22;23172;53.550;9.964;2022-12-20T02:22:47;9.10;99.90
37285;DHT22;23172;53.550;9.964;2022-12-20T02:27:53;9.20;99.90
37285;DHT22;23172;53.550;9.964;2022-12-20T02:33:02;9.20;99.90
37285;DHT22;23172;53.550;9.964;2022-12-20T02:43:21;9.30;99.90
37285;DHT22;23172;53.550;9.964;2022-12-20T02:48:38;9.40;99.90
37285;DHT22;23172;53.550;9.964;2022-12-20T02:53:42;9.40;99.90
37285;DHT22;23172;53.550;9.964;2022-12-20T02:58:45;9.50;99.90
37285;DHT22;23172;53.550;9.964;2022-12-20T03:03:51;9.50;99.90
37285;DHT22;23172;53.550;9.964;2022-12-20T03:08:53;9.50;99.90
37285;DHT22;23172;53.550;9.964;2022-12-20T03:13:55;9.60;99.90
37285;DHT22;23172;53.550;9.964;2022-12-20T03:18:58;9.60;99.90
37285;DHT22;23172;53.550;9.964;2022-12-20T03:23:59;9.60;99.90
37285;DHT22;23172;53.550;9.964;2022-12-20T03:29:01;9.60;99.90
37285;DHT22;23172;53.550;9.964;2022-12-20T03:34:04;9.60;99.90
37285;DHT22;23172;53.550;9.964;2022-12-20T03:39:06;9.70;99.90
37285;DHT22;23172;53.550;9.964;2022-12-20T03:44:08;9.70;99.90
37285;DHT22;23172;53.550;9.964;2022-12-20T03:49:11;9.80;99.90
37285;DHT22;23172;53.550;9.964;2022-12-20T03:54:13;9.80;99.90
37285;DHT22;23172;53.550;9.964;2022-12-20T03:59:15;9.80;99.90
37285;DHT22;23172;53.550;9.964;2022-12-20T04:04:18;9.90;99.90
37285;DHT22;23172;53.550;9.964;2022-12-20T04:09:20;9.90;99.90
37285;DHT22;23172;53.550;9.964;2022-12-20T04:14:21;9.90;99.90
37285;DHT22;23172;53.550;9.964;2022-12-20T04:19:24;10.00;99.90
37285;DHT22;23172;53.550;9.964;2022-12-20T04:24:26;10.00;99.90
37285;DHT22;23172;53.550;9.964;2022-12-20T04:29:27;10.00;99.90
37285;DHT22;23172;53.550;9.964;2022-12-20T04:34:30;10.00;99.90
37285;DHT22;23172;53.550;9.964;2022-12-20T04:39:32;10.00;99.90
37285;DHT22;23172;53.550;9.964;2022-12-20T04:44:34;10.00;99.90
37285;DHT22;23172;53.550;9.964;2022-12-20T04:49:37;10.00;99.90
37285;DHT22;23172;53.550;9.964;2022-12-20T04:54:38;10.00;99.90
37285;DHT22;23172;53.550;9.964;2022-12-20T04:59:40;10.10;99.90
37285;DHT22;23172;53.550;9.964;2022-12-20T05:04:43;10.10;99.90
37285;DHT22;23172;53.550;9.964;2022-12-20T05:09:45;10.10;99.90
37285;DHT22;23172;53.550;9.964;2022-12-20T05:14:46;10.20;99.90
37285;DHT22;23172;53.550;9.964;2022-12-20T05:19:49;10.20;99.90
37285;DHT22;23172;53.550;9.964;2022-12-20T05:24:51;10.10;99.90
37285;DHT22;23172;53.550;9.964;2022-12-20T05:30:10;10.10;99.90
37285;DHT22;23172;53.550;9.964;2022-12-20T05:35:13;10.10;99.90
37285;DHT22;23172;53.550;9.964;2022-12-20T05:40:15;10.10;99.90
37285;DHT22;23172;53.550;9.964;2022-12-20T05:45:17;10.00;99.90
37285;DHT22;23172;53.550;9.964;2022-12-20T05:50:20;10.00;99.90
37285;DHT22;23172;53.550;9.964;2022-12-20T05:55:22;10.10;99.90
37285;DHT22;23172;53.550;9.964;2022-12-20T06:00:24;10.00;99.90
37285;DHT22;23172;53.550;9.964;2022-12-20T06:05:27;10.10;99.90
37285;DHT22;23172;53.550;9.964;2022-12-20T06:10:28;10.10;99.90
37285;DHT22;23172;53.550;9.964;2022-12-20T06:15:30;10.20;99.90
37285;DHT22;23172;53.550;9.964;2022-12-20T06:20:33;10.20;99.90
37285;DHT22;23172;53.550;9.964;2022-12-20T06:25:35;10.20;99.90
37285;DHT22;23172;53.550;9.964;2022-12-20T06:30:39;10.20;99.90
37285;DHT22;23172;53.550;9.964;2022-12-20T06:35:41;10.20;99.90
37285;DHT22;23172;53.550;9.964;2022-12-20T06:40:43;10.20;99.90
37285;DHT22;23172;53.550;9.964;2022-12-20T06:45:45;10.20;99.90
37285;DHT22;23172;53.550;9.964;2022-12-20T06:50:48;10.20;99.90
37285;DHT22;23172;53.550;9.964;2022-12-20T06:55:50;10.30;99.90
37285;DHT22;23172;53.550;9.964;2022-12-20T07:00:51;10.30;99.90
37285;DHT22;23172;53.550;9.964;2022-12-20T07:05:56;10.30;99.90
37285;DHT22;23172;53.550;9.964;2022-12-20T07:11:01;10.30;99.90
37285;DHT22;23172;53.550;9.964;2022-12-20T07:16:03;10.30;99.90
37285;DHT22;23172;53.550;9.964;2022-12-20T07:21:06;10.30;99.90
37285;DHT22;23172;53.550;9.964;2022-12-20T07:26:08;10.30;99.90
37285;DHT22;23172;53.550;9.964;2022-12-20T07:31:10;10.30;99.90
37285;DHT22;23172;53.550;9.964;2022-12-20T07:36:13;10.30;99.90
37285;DHT22;23172;53.550;9.964;2022-12-20T07:41:16;10.30;99.90
37285;DHT22;23172;53.550;9.964;2022-12-20T07:46:18;10.30;99.90
37285;DHT22;23172;53.550;9.964;2022-12-20T07:51:22;10.40;99.90
37285;DHT22;23172;53.550;9.964;2022-12-20T07:56:25;10.30;99.90
37285;DHT22;23172;53.550;9.964;2022-12-20T08:01:27;10.30;99.90
37285;DHT22;23172;53.550;9.964;2022-12-20T08:06:31;10.30;99.90
37285;DHT22;23172;53.550;9.964;2022-12-20T08:11:34;10.30;99.90
37285;DHT22;23172;53.550;9.964;2022-12-20T08:16:37;10.30;99.90
37285;DHT22;23172;53.550;9.964;2022-12-20T08:21:40;10.30;99.90
37285;DHT22;23172;53.550;9.964;2022-12-20T08:26:41;10.30;99.90
37285;DHT22;23172;53.550;9.964;2022-12-20T08:31:43;10.30;99.90
37285;DHT22;23172;53.550;9.964;2022-12-20T08:36:46;10.40;99.90
37285;DHT22;23172;53.550;9.964;2022-12-20T08:41:48;10.40;99.90
37285;DHT22;23172;53.550;9.964;2022-12-20T08:46:50;10.50;99.90
37285;DHT22;23172;53.550;9.964;2022-12-20T08:51:54;10.60;99.90
37285;DHT22;23172;53.550;9.964;2022-12-20T08:56:56;10.60;99.90
37285;DHT22;23172;53.550;9.964;2022-12-20T09:01:58;10.70;99.90
37285;DHT22;23172;53.550;9.964;2022-12-20T09:07:01;10.70;99.90
37285;DHT22;23172;53.550;9.964;2022-12-20T09:12:03;10.80;99.90
37285;DHT22;23172;53.550;9.964;2022-12-20T09:17:04;10.80;99.90
37285;DHT22;23172;53.550;9.964;2022-12-20T09:22:07;10.80;99.90
37285;DHT22;23172;53.550;9.964;2022-12-20T09:27:09;10.90;99.90
37285;DHT22;23172;53.550;9.964;2022-12-20T09:32:11;11.00;99.90
37285;DHT22;23172;53.550;9.964;2022-12-20T09:37:14;11.10;99.90
37285;DHT22;23172;53.550;9.964;2022-12-20T09:42:16;11.10;99.90
37285;DHT22;23172;53.550;9.964;2022-12-20T09:47:20;11.10;99.90
37285;DHT22;23172;53.550;9.964;2022-12-20T09:52:26;11.10;99.90
37285;DHT22;23172;53.550;9.964;2022-12-20T09:57:32;11.10;99.90
37285;DHT22;23172;53.550;9.964;2022-12-20T10:02:39;11.10;99.90
37285;DHT22;23172;53.550;9.964;2022-12-20T10:07:44;11.10;99.90
37285;DHT22;23172;53.550;9.964;2022-12-20T10:12:50;11.10;99.90
37285;DHT22;23172;53.550;9.964;2022-12-20T10:18:11;11.10;99.90
37285;DHT22;23172;53.550;9.964;2022-12-20T10:23:21;11.10;99.90
37285;DHT22;23172;53.550;9.964;2022-12-20T10:28:25;11.10;99.90
37285;DHT22;23172;53.550;9.964;2022-12-20T10:33:29;11.20;99.90
37285;DHT22;23172;53.550;9.964;2022-12-20T10:38:43;11.20;99.90
37285;DHT22;23172;53.550;9.964;2022-12-20T10:43:46;11.30;99.90
37285;DHT22;23172;53.550;9.964;2022-12-20T10:48:48;11.40;99.90
37285;DHT22;23172;53.550;9.964;2022-12-20T10:53:56;11.40;99.90
37285;DHT22;23172;53.550;9.964;2022-12-20T10:58:59;11.50;99.90
37285;DHT22;23172;53.550;9.964;2022-12-20T11:04:02;11.60;99.90
37285;DHT22;23172;53.550;9.964;2022-12-20T11:09:25;11.60;99.90
37285;DHT22;23172;53.550;9.964;2022-12-20T11:14:27;11.60;99.90
37285;DHT22;23172;53.550;9.964;2022-12-20T11:19:30;11.70;99.90
37285;DHT22;23172;53.550;9.964;2022-12-20T11:24:37;11.70;99.90
37285;DHT22;23172;53.550;9.964;2022-12-20T11:29:47;11.80;99.90
37285;DHT22;23172;53.550;9.964;2022-12-20T11:34:54;11.80;99.90
37285;DHT22;23172;53.550;9.964;2022-12-20T11:40:15;11.90;99.90
37285;DHT22;23172;53.550;9.964;2022-12-20T11:45:19;11.90;99.90
37285;DHT22;23172;53.550;9.964;2022-12-20T11:50:33;12.00;99.90
37285;DHT22;23172;53.550;9.964;2022-12-20T11:55:38;12.00;99.90
37285;DHT22;23172;53.550;9.964;2022-12-20T12:00:42;12.00;99.90
37285;DHT22;23172;53.550;9.964;2022-12-20T12:05:49;12.00;99.40
37285;DHT22;23172;53.550;9.964;2022-12-20T12:10:55;12.10;99.40
37285;DHT22;23172;53.550;9.964;2022-12-20T12:16:00;12.10;99.40
37285;DHT22;23172;53.550;9.964;2022-12-20T12:21:05;12.10;99.20
37285;DHT22;23172;53.550;9.964;2022-12-20T12:26:11;12.10;99.20
37285;DHT22;23172;53.550;9.964;2022-12-20T12:31:15;12.10;98.90
37285;DHT22;23172;53.550;9.964;2022-12-20T12:36:22;12.10;99.00
37285;DHT22;23172;53.550;9.964;2022-12-20T12:41:46;12.10;99.10
37285;DHT22;23172;53.550;9.964;2022-12-20T12:46:53;12.10;99.40
37285;DHT22;23172;53.550;9.964;2022-12-20T12:51:58;12.00;99.70
37285;DHT22;23172;53.550;9.964;2022-12-20T12:57:02;12.00;99.90
37285;DHT22;23172;53.550;9.964;2022-12-20T13:07:40;11.90;99.90
37285;DHT22;23172;53.550;9.964;2022-12-20T13:12:54;11.80;99.90
37285;DHT22;23172;53.550;9.964;2022-12-20T13:17:57;11.70;99.90
37285;DHT22;23172;53.550;9.964;2022-12-20T13:23:04;11.70;99.90
37285;DHT22;23172;53.550;9.964;2022-12-20T13:33:37;11.60;99.90
37285;DHT22;23172;53.550;9.964;2022-12-20T13:38:48;11.50;99.90
37285;DHT22;23172;53.550;9.964;2022-12-20T13:43:50;11.50;99.90
37285;DHT22;23172;53.550;9.964;2022-12-20T13:48:54;11.50;99.90
37285;DHT22;23172;53.550;9.964;2022-12-20T13:53:58;11.40;99.90
37285;DHT22;23172;53.550;9.964;2022-12-20T13:59:02;11.40;99.90
37285;DHT22;23172;53.550;9.964;2022-12-20T14:04:08;11.40;99.90
37285;DHT22;23172;53.550;9.964;2022-12-20T14:09:25;11.40;99.90
37285;DHT22;23172;53.550;9.964;2022-12-20T14:14:27;11.40;99.90
37285;DHT22;23172;53.550;9.964;2022-12-20T14:19:30;11.30;99.90
37285;DHT22;23172;53.550;9.964;2022-12-20T14:24:32;11.30;99.90
37285;DHT22;23172;53.550;9.964;2022-12-20T14:29:34;11.30;99.90
37285;DHT22;23172;53.550;9.964;2022-12-20T14:34:37;11.30;99.90
37285;DHT22;23172;53.550;9.964;2022-12-20T14:39:53;11.30;99.90
37285;DHT22;23172;53.550;9.964;2022-12-20T14:45:01;11.30;99.90
37285;DHT22;23172;53.550;9.964;2022-12-20T14:50:04;11.20;99.90
37285;DHT22;23172;53.550;9.964;2022-12-20T14:55:10;11.20;99.90
37285;DHT22;23172;53.550;9.964;2022-12-20T15:00:19;11.20;99.90
37285;DHT22;23172;53.550;9.964;2022-12-20T15:05:35;11.20;99.90
37285;DHT22;23172;53.550;9.964;2022-12-20T15:10:38;11.10;99.90
37285;DHT22;23172;53.550;9.964;2022-12-20T15:15:41;11.10;99.90
37285;DHT22;23172;53.550;9.964;2022-12-20T15:20:45;11.10;99.90
37285;DHT22;23172;53.550;9.964;2022-12-20T15:25:48;11.00;99.90
37285;DHT22;23172;53.550;9.964;2022-12-20T15:30:50;11.00;99.90
37285;DHT22;23172;53.550;9.964;2022-12-20T15:35:53;11.00;99.90
37285;DHT22;23172;53.550;9.964;2022-12-20T15:40:56;11.00;99.90
37285;DHT22;23172;53.550;9.964;2022-12-20T15:46:01;11.00;99.90
37285;DHT22;23172;53.550;9.964;2022-12-20T15:51:10;11.00;99.90
37285;DHT22;23172;53.550;9.964;2022-12-20T15:56:16;11.00;99.90
37285;DHT22;23172;53.550;9.964;2022-12-20T16:01:19;11.00;99.90
37285;DHT22;23172;53.550;9.964;2022-12-20T16:06:22;11.00;99.90
37285;DHT22;23172;53.550;9.964;2022-12-20T16:11:25;11.10;99.90
37285;DHT22;23172;53.550;9.964;2022-12-20T16:16:27;11.10;99.90
37285;DHT22;23172;53.550;9.964;2022-12-20T16:21:31;11.10;99.90
37285;DHT22;23172;53.550;9.964;2022-12-20T16:26:33;11.10;99.90
37285;DHT22;23172;53.550;9.964;2022-12-20T16:31:35;11.10;99.90
37285;DHT22;23172;53.550;9.964;2022-12-20T16:36:38;11.10;99.90
37285;DHT22;23172;53.550;9.964;2022-12-20T16:41:40;11.10;99.90
37285;DHT22;23172;53.550;9.964;2022-12-20T16:46:43;11.10;99.90
37285;DHT22;23172;53.550;9.964;2022-12-20T16:51:47;11.10;99.90
37285;DHT22;23172;53.550;9.964;2022-12-20T16:56:50;11.10;99.90
37285;DHT22;23172;53.550;9.964;2022-12-20T17:01:55;11.10;99.90
37285;DHT22;23172;53.550;9.964;2022-12-20T17:06:58;11.10;99.90
37285;DHT22;23172;53.550;9.964;2022-12-20T17:12:00;11.00;99.90
37285;DHT22;23172;53.550;9.964;2022-12-20T17:17:03;11.00;99.90
37285;DHT22;23172;53.550;9.964;2022-12-20T17:22:06;11.00;99.90
37285;DHT22;23172;53.550;9.964;2022-12-20T17:27:10;11.10;99.90
37285;DHT22;23172;53.550;9.964;2022-12-20T17:32:16;11.10;99.90
37285;DHT22;23172;53.550;9.964;2022-12-20T17:37:20;11.10;99.90
37285;DHT22;23172;53.550;9.964;2022-12-20T17:42:23;11.10;99.90
37285;DHT22;23172;53.550;9.964;2022-12-20T17:47:24;11.10;99.90
37285;DHT22;23172;53.550;9.964;2022-12-20T17:52:27;11.10;99.90
37285;DHT22;23172;53.550;9.964;2022-12-20T17:57:29;11.20;99.90
37285;DHT22;23172;53.550;9.964;2022-12-20T18:02:31;11.20;99.90
37285;DHT22;23172;53.550;9.964;2022-12-20T18:07:34;11.20;99.90
37285;DHT22;23172;53.550;9.964;2022-12-20T18:12:37;11.20;99.90
37285;DHT22;23172;53.550;9.964;2022-12-20T18:17:39;11.20;99.90
37285;DHT22;23172;53.550;9.964;2022-12-20T18:22:42;11.20;99.90
37285;DHT22;23172;53.550;9.964;2022-12-20T18:27:44;11.20;99.90
37285;DHT22;23172;53.550;9.964;2022-12-20T18:32:45;11.20;99.90
37285;DHT22;23172;53.550;9.964;2022-12-20T18:37:48;11.20;99.90
37285;DHT22;23172;53.550;9.964;2022-12-20T18:42:50;11.20;99.90
37285;DHT22;23172;53.550;9.964;2022-12-20T18:47:52;11.20;99.90
37285;DHT22;23172;53.550;9.964;2022-12-20T18:52:56;11.20;99.90
37285;DHT22;23172;53.550;9.964;2022-12-20T18:57:57;11.20;99.90
37285;DHT22;23172;53.550;9.964;2022-12-20T19:02:59;11.20;99.90
37285;DHT22;23172;53.550;9.964;2022-12-20T19:08:03;11.20;99.90
37285;DHT22;23172;53.550;9.964;2022-12-20T19:13:04;11.20;99.90
37285;DHT22;23172;53.550;9.964;2022-12-20T19:18:06;11.20;99.90
37285;DHT22;23172;53.550;9.964;2022-12-20T19:23:09;11.20;99.90
37285;DHT22;23172;53.550;9.964;2022-12-20T19:28:11;11.20;99.90
37285;DHT22;23172;53.550;9.964;2022-12-20T19:33:13;11.20;99.90
37285;DHT22;23172;53.550;9.964;2022-12-20T19:38:16;11.10;99.90
37285;DHT22;23172;53.550;9.964;2022-12-20T19:43:17;11.10;99.90
37285;DHT22;23172;53.550;9.964;2022-12-20T19:48:19;11.10;99.90
37285;DHT22;23172;53.550;9.964;2022-12-20T19:53:22;11.10;99.90
37285;DHT22;23172;53.550;9.964;2022-12-20T19:58:24;11.00;99.90
37285;DHT22;23172;53.550;9.964;2022-12-20T20:03:25;11.00;99.90
37285;DHT22;23172;53.550;9.964;2022-12-20T20:08:29;11.00;99.90
37285;DHT22;23172;53.550;9.964;2022-12-20T20:13:31;11.00;99.90
37285;DHT22;23172;53.550;9.964;2022-12-20T20:18:32;11.00;99.90
37285;DHT22;23172;53.550;9.964;2022-12-20T20:23:36;11.00;99.90
37285;DHT22;23172;53.550;9.964;2022-12-20T20:28:38;11.00;99.90
37285;DHT22;23172;53.550;9.964;2022-12-20T20:33:39;11.00;99.90
37285;DHT22;23172;53.550;9.964;2022-12-20T20:38:42;11.00;99.90
37285;DHT22;23172;53.550;9.964;2022-12-20T20:43:44;10.90;99.90
37285;DHT22;23172;53.550;9.964;2022-12-20T20:48:46;10.90;99.90
37285;DHT22;23172;53.550;9.964;2022-12-20T20:53:49;10.90;99.90
37285;DHT22;23172;53.550;9.964;2022-12-20T20:58:51;10.90;99.90
37285;DHT22;23172;53.550;9.964;2022-12-20T21:03:53;11.00;99.90
37285;DHT22;23172;53.550;9.964;2022-12-20T21:08:56;10.90;99.90
37285;DHT22;23172;53.550;9.964;2022-12-20T21:13:57;10.90;99.90
37285;DHT22;23172;53.550;9.964;2022-12-20T21:18:59;10.90;99.90
37285;DHT22;23172;53.550;9.964;2022-12-20T21:24:02;11.00;99.90
37285;DHT22;23172;53.550;9.964;2022-12-20T21:29:04;11.00;99.90
37285;DHT22;23172;53.550;9.964;2022-12-20T21:34:06;11.00;99.90
37285;DHT22;23172;53.550;9.964;2022-12-20T21:39:10;11.00;99.90
37285;DHT22;23172;53.550;9.964;2022-12-20T21:44:12;11.00;99.90
37285;DHT22;23172;53.550;9.964;2022-12-20T21:49:14;11.00;99.90
37285;DHT22;23172;53.550;9.964;2022-12-20T21:54:17;11.00;99.90
37285;DHT22;23172;53.550;9.964;2022-12-20T21:59:19;11.00;99.90
37285;DHT22;23172;53.550;9.964;2022-12-20T22:04:20;11.00;99.90
37285;DHT22;23172;53.550;9.964;2022-12-20T22:09:24;11.00;99.90
37285;DHT22;23172;53.550;9.964;2022-12-20T22:14:26;11.00;99.90
37285;DHT22;23172;53.550;9.964;2022-12-20T22:19:27;11.00;99.90
37285;DHT22;23172;53.550;9.964;2022-12-20T22:24:30;11.00;99.90
37285;DHT22;23172;53.550;9.964;2022-12-20T22:29:32;11.00;99.90
37285;DHT22;23172;53.550;9.964;2022-12-20T22:34:34;11.00;99.90
37285;DHT22;23172;53.550;9.964;2022-12-20T22:39:37;10.90;99.90
37285;DHT22;23172;53.550;9.964;2022-12-20T22:44:38;10.90;99.90
37285;DHT22;23172;53.550;9.964;2022-12-20T22:49:40;10.90;99.90
37285;DHT22;23172;53.550;9.964;2022-12-20T22:54:43;10.90;99.90
37285;DHT22;23172;53.550;9.964;2022-12-20T22:59:45;10.90;99.90
37285;DHT22;23172;53.550;9.964;2022-12-20T23:04:46;10.90;99.90
37285;DHT22;23172;53.550;9.964;2022-12-20T23:09:49;10.80;99.90
37285;DHT22;23172;53.550;9.964;2022-12-20T23:14:51;10.80;99.90
37285;DHT22;23172;53.550;9.964;2022-12-20T23:20:10;10.90;99.90
37285;DHT22;23172;53.550;9.964;2022-12-20T23:25:31;10.90;99.90
37285;DHT22;23172;53.550;9.964;2022-12-20T23:30:33;10.90;99.90
37285;DHT22;23172;53.550;9.964;2022-12-20T23:35:34;10.90;99.90
37285;DHT22;23172;53.550;9.964;2022-12-20T23:40:39;10.90;99.90
37285;DHT22;23172;53.550;9.964;2022-12-20T23:45:41;10.90;99.90
37285;DHT22;23172;53.550;9.964;2022-12-20T23:50:43;10.90;99.90
37285;DHT22;23172;53.550;9.964;2022-12-20T23:55:55;10.90;99.90
